M I D A S
Marine Information and Data Acquisition System
Tripno 977 of the Zeeleeuw from 2005-10-24 06:41:04 to 2005-10-24 14:23:06
Back to CruiseResearch ActivitiesStationsMapUnderway DataData graphs

EquipmentUnitsComment
TimeDGPSUTC
LatitudeDGPSDM.mWGS84
LongitudeDGPSDM.mWGS84
HeadingGyrodeg 
SOGDGPSknotsSpeed over ground
COGDGPSdegCourse over ground
DepthEcho soundermeters200 kHz
Missing or incorrect values are displayed as -999
Navigation data collected by the RV Zeeleeuw from 2005-10-24 06:42:02 to 2005-10-24 14:33:23
Time Latitude Longitude Heading SOG COG Depth
2005-10-24 06:43:07 51°13.616 2°56.036 113.8 3.2 292 -999
2005-10-24 06:44:07 51°13.643 2°55.941 121.3 4.6 298 -999
2005-10-24 06:45:07 51°13.676 2°55.832 107.6 4.1 289 -999
2005-10-24 06:46:07 51°13.683 2°55.753 79.3 1 277 12.8
2005-10-24 06:47:07 51°13.707 2°55.763 13.2 2.6 4 14.7
2005-10-24 06:48:07 51°13.775 2°55.692 324.8 7.3 321 10.3
2005-10-24 06:49:07 51°13.901 2°55.578 340.9 9.5 336 10.6
2005-10-24 06:50:07 51°14.049 2°55.474 341.9 9.8 337 11.1
2005-10-24 06:51:07 51°14.204 2°55.347 331.3 11.1 325 11.5
2005-10-24 06:52:07 51°14.334 2°55.12 314.4 11.8 309 11.7
2005-10-24 06:53:07 51°14.466 2°54.89 311.1 11.8 305 11.3
2005-10-24 06:54:07 51°14.565 2°54.608 299.7 12.4 297 11.2
2005-10-24 06:55:07 51°14.657 2°54.305 296.1 12.7 293 11.2
2005-10-24 06:56:07 51°14.742 2°53.994 296.3 12.8 293 11.1
2005-10-24 06:57:07 51°14.812 2°53.676 292.1 12.8 289 10.9
2005-10-24 06:58:07 51°14.873 2°53.349 289.5 12.9 286 11.2
2005-10-24 06:59:07 51°14.925 2°53.018 286 12.9 282 11.4
2005-10-24 07:00:07 51°14.961 2°52.681 281.7 12.9 278 11.9
2005-10-24 07:01:07 51°14.96 2°52.344 271.9 12.8 270 11.4
2005-10-24 07:02:07 51°14.961 2°52.005 273.1 12.8 270 11.9
2005-10-24 07:03:07 51°14.964 2°51.666 273.7 12.7 271 12.3
2005-10-24 07:04:07 51°14.962 2°51.33 268 12.6 264 12.7
2005-10-24 07:05:07 51°14.929 2°51.001 261.7 12.6 261 12.8
2005-10-24 07:06:07 51°14.878 2°50.678 257.3 12.5 254 12.9
2005-10-24 07:07:07 51°14.821 2°50.357 258 12.6 256 13.1
2005-10-24 07:08:07 51°14.772 2°50.032 258.8 12.6 256 13.2
2005-10-24 07:09:07 51°14.721 2°49.708 258.3 12.6 255 13.3
2005-10-24 07:10:07 51°14.658 2°49.392 253 12.7 253 13.3
2005-10-24 07:11:07 51°14.589 2°49.079 253.2 12.5 251 13.2
2005-10-24 07:12:07 51°14.519 2°48.768 252.4 12.4 250 13
2005-10-24 07:13:07 51°14.447 2°48.457 251.8 12.4 250 12.8
2005-10-24 07:14:07 51°14.376 2°48.146 251.1 12.5 250 12.7
2005-10-24 07:15:07 51°14.305 2°47.834 252.3 12.4 251 12.3
2005-10-24 07:16:07 51°14.239 2°47.52 256.6 12.5 255 11.7
2005-10-24 07:17:07 51°14.219 2°47.187 270.3 12.7 269 10.4
2005-10-24 07:18:07 51°14.214 2°46.851 270 12.7 267 10.3
2005-10-24 07:19:07 51°14.208 2°46.515 269.9 12.7 269 11
2005-10-24 07:20:07 51°14.204 2°46.178 270 12.7 270 12.4
2005-10-24 07:21:07 51°14.198 2°45.843 269.5 12.7 269 13.3
2005-10-24 07:22:07 51°14.193 2°45.508 269.2 12.7 268 13.2
2005-10-24 07:23:07 51°14.187 2°45.173 269.7 12.7 269 11.1
2005-10-24 07:24:07 51°14.181 2°44.84 269.2 12.5 268 8.6
2005-10-24 07:25:07 51°14.187 2°44.504 277.2 13 277 10
2005-10-24 07:26:07 51°14.222 2°44.164 279.1 12.9 277 12.8
2005-10-24 07:27:07 51°14.249 2°43.827 277.6 12.8 276 14.9
2005-10-24 07:28:07 51°14.276 2°43.491 277.8 12.8 278 16.2
2005-10-24 07:29:07 51°14.303 2°43.155 277.3 12.8 277 17
2005-10-24 07:30:07 51°14.33 2°42.819 277.5 12.7 278 17.6
2005-10-24 07:31:07 51°14.357 2°42.484 276.5 12.7 277 17.8
2005-10-24 07:32:07 51°14.383 2°42.15 276.9 12.7 276 18
2005-10-24 07:33:07 51°14.409 2°41.817 277.3 12.6 277 16.2
2005-10-24 07:34:07 51°14.437 2°41.483 277.8 12.7 278 14.7
2005-10-24 07:35:07 51°14.466 2°41.149 277.2 12.8 276 14.7
2005-10-24 07:36:07 51°14.488 2°40.812 277.3 12.9 278 14.1
2005-10-24 07:37:07 51°14.535 2°40.48 285.2 12.9 284 14.2
2005-10-24 07:38:07 51°14.59 2°40.151 284.3 12.9 285 13.4
2005-10-24 07:39:07 51°14.643 2°39.821 284.4 12.8 284 14.1
2005-10-24 07:40:07 51°14.695 2°39.49 284.2 12.9 285 15.8
2005-10-24 07:41:07 51°14.747 2°39.159 284.9 12.8 284 16.7
2005-10-24 07:42:07 51°14.8 2°38.829 284.7 12.7 286 17.3
2005-10-24 07:43:07 51°14.853 2°38.503 284.5 12.7 284 17.3
2005-10-24 07:44:07 51°14.905 2°38.174 283.6 12.7 284 15.6
2005-10-24 07:45:07 51°14.957 2°37.848 284.5 12.6 284 11.9
2005-10-24 07:46:07 51°15.01 2°37.522 284.3 12.7 285 10.1
2005-10-24 07:47:07 51°15.063 2°37.195 284.7 12.8 284 11.6
2005-10-24 07:48:07 51°15.116 2°36.867 283.7 12.9 283 14.2
2005-10-24 07:49:07 51°15.171 2°36.539 285 12.8 285 14.6
2005-10-24 07:50:07 51°15.23 2°36.213 288.7 12.9 288 16.7
2005-10-24 07:51:07 51°15.314 2°35.899 294.6 12.9 295 20
2005-10-24 07:52:07 51°15.406 2°35.589 297.7 12.9 298 26
2005-10-24 07:53:07 51°15.512 2°35.291 299.4 12.9 298 26.5
2005-10-24 07:54:07 51°15.617 2°34.992 298.8 12.9 298 26.6
2005-10-24 07:55:07 51°15.72 2°34.691 298.9 12.9 299 26.2
2005-10-24 07:56:07 51°15.822 2°34.389 299.9 12.9 299 24.4
2005-10-24 07:57:07 51°15.937 2°34.098 307.4 13 307 14.4
2005-10-24 07:58:07 51°16.065 2°33.822 308.4 13 309 10.7
2005-10-24 07:59:07 51°16.2 2°33.553 311.5 13.3 308 8.3
2005-10-24 08:00:07 51°16.34 2°33.286 314.5 13.2 312 12.8
2005-10-24 08:01:07 51°16.493 2°33.033 316.3 13 312 25.3
2005-10-24 08:02:07 51°16.648 2°32.79 316.1 13.1 315 25.4
2005-10-24 08:03:07 51°16.802 2°32.547 315.2 13.1 316 25.1
2005-10-24 08:04:07 51°16.956 2°32.305 316.6 13 313 25.8
2005-10-24 08:05:07 51°17.109 2°32.059 317.5 13.1 316 26.8
2005-10-24 08:06:07 51°17.263 2°31.815 315.9 13.2 314 26.9
2005-10-24 08:07:07 51°17.417 2°31.571 315.8 12.9 314 26.2
2005-10-24 08:08:07 51°17.569 2°31.324 315.1 13.1 311 27.9
2005-10-24 08:09:07 51°17.723 2°31.08 317.5 13.1 314 28.8
2005-10-24 08:10:07 51°17.871 2°30.83 315.1 12.9 311 30.2
2005-10-24 08:11:07 51°18.017 2°30.571 313.8 13.2 311 30.3
2005-10-24 08:12:07 51°18.158 2°30.31 312.1 13 308 29.8
2005-10-24 08:13:07 51°18.3 2°30.047 313.6 13.2 310 28.3
2005-10-24 08:14:07 51°18.441 2°29.784 314.2 12.9 309 22.7
2005-10-24 08:15:07 51°18.581 2°29.524 313.3 13 307 13.5
2005-10-24 08:16:07 51°18.723 2°29.267 314.9 12.9 310 10
2005-10-24 08:17:07 51°18.86 2°29.001 311.5 13 305 13.3
2005-10-24 08:18:07 51°18.931 2°28.699 273.5 11.9 269 28.5
2005-10-24 08:19:07 51°18.836 2°28.447 219.7 11.3 215 31.4
2005-10-24 08:20:07 51°18.657 2°28.327 214.2 11.8 211 30.5
2005-10-24 08:21:07 51°18.491 2°28.155 217.2 12 213 29.6
2005-10-24 08:22:07 51°18.323 2°27.984 217.1 12.1 213 27.8
2005-10-24 08:23:07 51°18.157 2°27.817 217.3 12 212 26.8
2005-10-24 08:24:07 51°18.056 2°27.675 235.1 5.5 236 27
2005-10-24 08:25:07 51°18.045 2°27.611 247.5 1 321 28.2
2005-10-24 08:26:07 51°18.066 2°27.608 268.2 1.5 8 28.9
2005-10-24 08:27:07 51°18.089 2°27.622 303.9 1.4 30 29.1
2005-10-24 08:28:07 51°18.109 2°27.641 322.2 1.7 30 29.1
2005-10-24 08:29:07 51°18.129 2°27.658 324.6 1.4 27 29.8
2005-10-24 08:30:07 51°18.16 2°27.662 331 3.7 340 30.4
2005-10-24 08:31:07 51°18.249 2°27.709 46.9 7.2 40 31.8
2005-10-24 08:32:07 51°18.381 2°27.885 49.2 11.7 41 31.9
2005-10-24 08:33:07 51°18.532 2°28.089 45.4 12 37 31.5
2005-10-24 08:34:07 51°18.681 2°28.303 49.8 12.3 42 31.1
2005-10-24 08:35:07 51°18.811 2°28.549 58 12.2 49 29.2
2005-10-24 08:36:07 51°18.937 2°28.793 58.6 11.7 52 25.6
2005-10-24 08:37:07 51°19.004 2°28.988 87 6.5 76 19.7
2005-10-24 08:38:07 51°19.002 2°29.138 114.7 5.4 101 13.8
2005-10-24 08:39:07 51°18.963 2°29.25 145.1 4.7 130 12
2005-10-24 08:40:07 51°18.918 2°29.328 152.8 4.2 141 11
2005-10-24 08:41:07 51°18.855 2°29.346 193.6 4.6 191 12.2
2005-10-24 08:42:07 51°18.788 2°29.297 213.8 3.4 208 11
2005-10-24 08:43:07 51°18.746 2°29.269 198.3 2.5 203 11.5
2005-10-24 08:44:07 51°18.706 2°29.243 208.7 2.7 212 11.5
2005-10-24 08:45:07 51°18.664 2°29.207 208.2 2.8 202 11.3
2005-10-24 08:46:07 51°18.63 2°29.175 207.3 2 215 11.5
2005-10-24 08:47:07 51°18.599 2°29.155 202.3 2.1 199 11.5
2005-10-24 08:48:07 51°18.561 2°29.128 207.3 2.6 204 10.5
2005-10-24 08:49:07 51°18.524 2°29.096 204.9 2.5 205 11.6
2005-10-24 08:50:07 51°18.488 2°29.066 204.6 2.3 201 11.3
2005-10-24 08:51:07 51°18.452 2°29.037 206.6 2.6 210 10.3
2005-10-24 08:52:07 51°18.412 2°28.999 205.7 3 207 11.8
2005-10-24 08:53:07 51°18.375 2°28.969 205.4 2.4 209 10.2
2005-10-24 08:54:07 51°18.34 2°28.933 207.9 2.6 210 10.9
2005-10-24 08:55:07 51°18.304 2°28.895 209 2.6 220 11.2
2005-10-24 08:56:07 51°18.267 2°28.865 201.7 2.6 205 11.4
2005-10-24 08:57:07 51°18.23 2°28.836 205.4 2.4 210 10.4
2005-10-24 08:58:07 51°18.2 2°28.804 209.8 2.3 218 11.7
2005-10-24 08:59:07 51°18.167 2°28.767 206.5 2.7 218 10.6
2005-10-24 09:00:07 51°18.13 2°28.734 201.8 2.5 208 9.7
2005-10-24 09:01:07 51°18.096 2°28.704 206.1 2.2 209 11.3
2005-10-24 09:02:07 51°18.065 2°28.669 212.5 2.4 225 10.3
2005-10-24 09:03:07 51°18.031 2°28.626 206.8 2.7 215 10.8
2005-10-24 09:04:07 51°17.993 2°28.594 201.5 2.6 205 10.4
2005-10-24 09:05:07 51°17.956 2°28.567 202.5 2.6 206 10.2
2005-10-24 09:06:07 51°17.919 2°28.53 205.4 2.8 209 10.5
2005-10-24 09:07:07 51°17.882 2°28.496 202.9 2.4 207 10.7
2005-10-24 09:08:07 51°17.844 2°28.467 201.3 2.6 191 10.4
2005-10-24 09:09:07 51°17.81 2°28.438 202.8 2.4 213 10.3
2005-10-24 09:10:07 51°17.774 2°28.406 199.9 2.4 203 9.7
2005-10-24 09:11:07 51°17.736 2°28.383 197.4 2.5 200 10.3
2005-10-24 09:12:07 51°17.7 2°28.364 196.5 2.4 190 9.7
2005-10-24 09:13:07 51°17.661 2°28.339 199 2.6 199 10.1
2005-10-24 09:14:07 51°17.621 2°28.31 201 2.8 204 10.5
2005-10-24 09:15:07 51°17.583 2°28.288 198.4 2.4 201 9.8
2005-10-24 09:16:07 51°17.546 2°28.263 202.5 2.3 212 11.1
2005-10-24 09:17:07 51°17.514 2°28.242 201.7 2.3 208 9.8
2005-10-24 09:18:07 51°17.482 2°28.217 203.3 2.1 205 10.4
2005-10-24 09:19:07 51°17.448 2°28.184 209 2.8 215 10.3
2005-10-24 09:20:07 51°17.41 2°28.144 207.3 2.6 210 10.9
2005-10-24 09:21:07 51°17.37 2°28.099 217.6 3 223 11.3
2005-10-24 09:22:07 51°17.341 2°28.051 213.3 2.2 224 10.5
2005-10-24 09:23:07 51°17.312 2°27.998 225 2.9 232 10.8
2005-10-24 09:24:07 51°17.287 2°27.94 225.4 2.7 242 9.1
2005-10-24 09:25:07 51°17.266 2°27.882 224 1.9 238 10.1
2005-10-24 09:26:07 51°17.262 2°27.863 216.9 0.7 324 9.3
2005-10-24 09:27:07 51°17.278 2°27.869 200.2 1.5 29 9.6
2005-10-24 09:28:07 51°17.306 2°27.876 171.1 1.8 5 9.1
2005-10-24 09:29:07 51°17.326 2°27.884 111 1.7 71 9.9
2005-10-24 09:30:07 51°17.331 2°28.031 103.2 8.1 97 10
2005-10-24 09:31:07 51°17.285 2°28.264 114.6 10 108 13.8
2005-10-24 09:32:07 51°17.225 2°28.518 117 10.1 113 22.1
2005-10-24 09:33:07 51°17.164 2°28.771 117.3 10.2 111 27.3
2005-10-24 09:34:07 51°17.102 2°29.027 113.9 10.4 107 28.2
2005-10-24 09:35:07 51°17.043 2°29.281 113.4 10.5 109 28.1
2005-10-24 09:36:07 51°16.986 2°29.547 113.7 11.3 107 27.9
2005-10-24 09:37:07 51°16.92 2°29.853 114.9 12.5 111 27.3
2005-10-24 09:38:07 51°16.848 2°30.171 118.3 12.4 110 27.3
2005-10-24 09:39:07 51°16.772 2°30.488 116.1 12.7 110 27.1
2005-10-24 09:40:07 51°16.699 2°30.806 117.8 12.8 110 27.3
2005-10-24 09:41:07 51°16.625 2°31.124 116.1 13.3 110 26.5
2005-10-24 09:42:07 51°16.548 2°31.438 122.2 12.5 119 27.6
2005-10-24 09:43:07 51°16.419 2°31.699 136.9 12.7 129 27.1
2005-10-24 09:44:07 51°16.272 2°31.931 140.6 12.5 137 26.3
2005-10-24 09:45:07 51°16.114 2°32.147 143.3 12.5 139 25.9
2005-10-24 09:46:07 51°15.955 2°32.361 147.1 12.5 142 19.7
2005-10-24 09:47:07 51°15.792 2°32.542 152.5 11.8 149 7.5
2005-10-24 09:48:07 51°15.632 2°32.719 150.5 12.2 148 7.9
2005-10-24 09:49:07 51°15.459 2°32.877 156.1 12 149 8.3
2005-10-24 09:50:07 51°15.282 2°33.035 155.3 11.9 153 10.6
2005-10-24 09:51:07 51°15.103 2°33.199 155.3 12.6 152 18.7
2005-10-24 09:52:07 51°14.922 2°33.364 154.5 12.7 150 22.8
2005-10-24 09:53:07 51°14.739 2°33.516 159.1 12.4 154 24.5
2005-10-24 09:54:07 51°14.549 2°33.654 158.7 12.7 151 25.1
2005-10-24 09:55:07 51°14.36 2°33.793 159.1 12.6 158 24.2
2005-10-24 09:56:07 51°14.185 2°33.922 162 8.9 155 23.1
2005-10-24 09:57:07 51°14.076 2°33.965 174.7 5.9 167 21.8
2005-10-24 09:58:07 51°14.012 2°33.981 185 1.7 175 21.4
2005-10-24 09:59:07 51°14.011 2°33.989 185.9 0.6 48 21.2
2005-10-24 10:00:07 51°14.023 2°33.996 155.3 0.9 25 21.2
2005-10-24 10:01:07 51°14.036 2°34.001 127.2 0.8 16 22
2005-10-24 10:02:07 51°14.045 2°34.009 113.8 0.7 39 21.3
2005-10-24 10:03:07 51°14.048 2°34.05 107 4.4 97 21.3
2005-10-24 10:04:07 51°14.048 2°34.294 88.8 11.9 82 21.1
2005-10-24 10:05:07 51°14.07 2°34.629 90.7 12.6 87 20.4
2005-10-24 10:06:07 51°14.1 2°34.964 87.5 13 83 18.6
2005-10-24 10:07:07 51°14.131 2°35.305 84.9 12.8 79 13.3
2005-10-24 10:08:07 51°14.173 2°35.638 83.1 12.8 79 12.4
2005-10-24 10:09:07 51°14.204 2°35.972 87 12.4 83 11.5
2005-10-24 10:10:07 51°14.213 2°36.309 93.6 12.4 89 11
2005-10-24 10:11:07 51°14.229 2°36.638 89.2 12.5 84 11.3
2005-10-24 10:12:07 51°14.23 2°36.97 93.3 12.3 89 12.2
2005-10-24 10:13:07 51°14.232 2°37.302 93.6 12.5 90 13.6
2005-10-24 10:14:07 51°14.228 2°37.63 94.7 12.6 93 15.8
2005-10-24 10:15:07 51°14.217 2°37.964 96 12.6 92 18.3
2005-10-24 10:16:07 51°14.208 2°38.295 95.9 12.7 95 17.2
2005-10-24 10:17:07 51°14.176 2°38.625 102.2 12.5 99 15
2005-10-24 10:18:07 51°14.094 2°38.916 135.7 12.1 136 10.5
2005-10-24 10:19:07 51°13.902 2°39.019 174.1 12.6 175 13.1
2005-10-24 10:20:07 51°13.702 2°38.93 207 12.8 207 13.7
2005-10-24 10:21:07 51°13.513 2°38.771 208.6 12.8 207 13.7
2005-10-24 10:22:07 51°13.324 2°38.611 209.1 13 209 13.5
2005-10-24 10:23:07 51°13.136 2°38.45 208.9 12.7 206 13.4
2005-10-24 10:24:07 51°12.947 2°38.291 208.3 12.8 208 12.8
2005-10-24 10:25:07 51°12.76 2°38.129 209.6 12.8 208 12.2
2005-10-24 10:26:07 51°12.571 2°37.968 209.7 12.8 209 12.1
2005-10-24 10:27:07 51°12.382 2°37.806 209.5 12.8 207 11.8
2005-10-24 10:28:07 51°12.193 2°37.645 208.8 13.1 209 11.9
2005-10-24 10:29:07 51°12.003 2°37.482 209.4 13 208 12
2005-10-24 10:30:07 51°11.815 2°37.314 211.2 13 211 12
2005-10-24 10:31:07 51°11.627 2°37.139 211.1 12.9 210 12.3
2005-10-24 10:32:07 51°11.44 2°36.965 211.1 13 210 12.2
2005-10-24 10:33:07 51°11.253 2°36.79 211.7 13.1 210 11.9
2005-10-24 10:34:07 51°11.067 2°36.615 211.2 13 210 11.5
2005-10-24 10:35:07 51°10.88 2°36.441 211.1 12.8 211 10.7
2005-10-24 10:36:07 51°10.707 2°36.239 222.8 12.9 222 10.1
2005-10-24 10:37:07 51°10.548 2°36.013 222.6 12.7 221 9.9
2005-10-24 10:38:07 51°10.387 2°35.787 222.4 12.8 221 10.3
2005-10-24 10:39:07 51°10.226 2°35.559 222.9 13 221 10.2
2005-10-24 10:40:07 51°10.066 2°35.332 222.5 12.8 221 10.4
2005-10-24 10:41:07 51°9.906 2°35.098 224.2 13 223 13.7
2005-10-24 10:42:07 51°9.747 2°34.858 224.2 13.2 223 16
2005-10-24 10:43:07 51°9.588 2°34.615 224.4 13.4 224 17.5
2005-10-24 10:44:07 51°9.43 2°34.371 224.2 13.3 224 18.4
2005-10-24 10:45:07 51°9.271 2°34.127 224.2 13.3 224 17.7
2005-10-24 10:46:07 51°9.112 2°33.886 224.6 13.2 224 17.1
2005-10-24 10:47:07 51°8.952 2°33.645 224.2 13.3 223 16.8
2005-10-24 10:48:07 51°8.792 2°33.401 224.6 13.3 224 16.7
2005-10-24 10:49:07 51°8.633 2°33.159 224.4 13.4 224 16.7
2005-10-24 10:50:07 51°8.474 2°32.918 224 13.3 223 16.3
2005-10-24 10:51:07 51°8.314 2°32.676 224.4 13.2 224 17.3
2005-10-24 10:52:07 51°8.154 2°32.434 224.5 13.3 224 16.8
2005-10-24 10:53:07 51°7.992 2°32.193 224 13.4 224 14.7
2005-10-24 10:54:07 51°7.831 2°31.948 224.4 13.4 224 16.5
2005-10-24 10:55:07 51°7.679 2°31.744 206.9 8.4 204 13.4
2005-10-24 10:56:07 51°7.604 2°31.786 117.5 4 115 12.2
2005-10-24 10:57:07 51°7.627 2°31.868 49.3 3.9 46 12.3
2005-10-24 10:58:07 51°7.678 2°31.953 52.9 4.7 49 12.5
2005-10-24 10:59:07 51°7.725 2°32.057 61.9 4.9 60 12.9
2005-10-24 11:00:07 51°7.767 2°32.171 61.9 5 57 13.1
2005-10-24 11:01:07 51°7.791 2°32.281 82.7 3.7 83 13.6
2005-10-24 11:02:07 51°7.799 2°32.362 84.5 2.9 85 13.4
2005-10-24 11:03:07 51°7.806 2°32.437 85.3 2.9 81 13.3
2005-10-24 11:04:07 51°7.811 2°32.512 86.2 2.8 85 13
2005-10-24 11:05:07 51°7.818 2°32.581 82.9 2.6 79 12.7
2005-10-24 11:06:07 51°7.83 2°32.646 73.9 2.6 69 12.3
2005-10-24 11:07:07 51°7.85 2°32.712 66.4 2.8 61 12.4
2005-10-24 11:08:07 51°7.876 2°32.774 59 2.8 54 12.3
2005-10-24 11:09:07 51°7.902 2°32.835 62.4 2.7 59 12.5
2005-10-24 11:10:07 51°7.928 2°32.895 60.4 2.7 53 12.7
2005-10-24 11:11:07 51°7.954 2°32.952 57.2 2.7 51 12.7
2005-10-24 11:12:07 51°7.986 2°33.005 50 2.7 45 13
2005-10-24 11:13:07 51°8.02 2°33.053 45.1 2.8 35 13.8
2005-10-24 11:14:07 51°8.054 2°33.106 56.2 2.8 45 14.3
2005-10-24 11:15:07 51°8.082 2°33.163 59.5 2.7 53 14.4
2005-10-24 11:16:07 51°8.109 2°33.221 59.8 2.7 52 14.7
2005-10-24 11:17:07 51°8.136 2°33.275 60 2.5 51 14.9
2005-10-24 11:18:07 51°8.162 2°33.329 62 2.5 52 15.1
2005-10-24 11:19:07 51°8.187 2°33.381 60.4 2.5 52 15.1
2005-10-24 11:20:07 51°8.212 2°33.435 62.4 2.6 53 15.4
2005-10-24 11:21:07 51°8.235 2°33.49 67.5 2.4 62 15.5
2005-10-24 11:22:07 51°8.255 2°33.546 68 2.4 60 15.4
2005-10-24 11:23:07 51°8.275 2°33.6 66.3 2.4 57 15.7
2005-10-24 11:24:07 51°8.298 2°33.65 58.7 2.4 47 15.7
2005-10-24 11:25:07 51°8.322 2°33.701 59.1 2.4 52 15.9
2005-10-24 11:26:07 51°8.349 2°33.752 61 2.5 51 15.9
2005-10-24 11:27:07 51°8.371 2°33.808 68.5 2.5 58 16
2005-10-24 11:28:07 51°8.388 2°33.866 70.2 2.4 62 16
2005-10-24 11:29:07 51°8.406 2°33.921 69 2.3 62 16
2005-10-24 11:30:07 51°8.427 2°33.977 64.7 2.4 60 16.1
2005-10-24 11:31:07 51°8.451 2°34.032 60.2 2.5 56 16.1
2005-10-24 11:32:07 51°8.479 2°34.089 57.9 2.6 53 16.2
2005-10-24 11:33:07 51°8.507 2°34.145 60.2 2.7 50 16.3
2005-10-24 11:34:07 51°8.532 2°34.203 64.8 2.7 57 16.3
2005-10-24 11:35:07 51°8.553 2°34.262 67.1 2.6 61 16.3
2005-10-24 11:36:07 51°8.574 2°34.323 69.2 2.6 64 16.3
2005-10-24 11:37:07 51°8.593 2°34.384 70.4 2.6 62 16.2
2005-10-24 11:38:07 51°8.611 2°34.446 71.2 2.6 66 16.2
2005-10-24 11:39:07 51°8.629 2°34.509 71.4 2.5 67 16.1
2005-10-24 11:40:07 51°8.651 2°34.567 62.5 2.6 56 16
2005-10-24 11:41:07 51°8.672 2°34.624 70.5 2.4 66 16.1
2005-10-24 11:42:07 51°8.686 2°34.683 78.3 2.4 74 16
2005-10-24 11:43:07 51°8.697 2°34.743 81.4 2.3 75 15.8
2005-10-24 11:44:07 51°8.703 2°34.804 90.3 2.4 86 15.6
2005-10-24 11:45:07 51°8.703 2°34.853 103.2 1.5 97 15.4
2005-10-24 11:46:07 51°8.699 2°34.885 115.5 1 99 15
2005-10-24 11:47:07 51°8.694 2°34.905 122.7 0.6 106 14.8
2005-10-24 11:48:07 51°8.688 2°34.93 113.3 2.2 110 14.4
2005-10-24 11:49:07 51°8.714 2°34.998 40.5 4.1 31 14.5
2005-10-24 11:50:07 51°8.781 2°35.048 37.3 4.3 31 15.5
2005-10-24 11:51:07 51°8.825 2°35.113 52.9 3.3 46 15.6
2005-10-24 11:52:07 51°8.865 2°35.168 46.1 3.2 36 15.7
2005-10-24 11:53:07 51°8.904 2°35.219 48.7 2.9 45 15.7
2005-10-24 11:54:07 51°8.934 2°35.275 63.5 2.7 57 15.9
2005-10-24 11:55:07 51°8.957 2°35.337 67.7 2.7 59 15.9
2005-10-24 11:56:07 51°8.98 2°35.399 65.3 2.8 58 15.9
2005-10-24 11:57:07 51°9.005 2°35.462 65.4 2.8 57 15.9
2005-10-24 11:58:07 51°9.031 2°35.524 64.2 2.8 57 15.8
2005-10-24 11:59:07 51°9.057 2°35.585 64.3 2.8 58 15.8
2005-10-24 12:00:07 51°9.082 2°35.647 66 2.8 63 15.8
2005-10-24 12:01:07 51°9.106 2°35.708 64.7 2.7 58 15.7
2005-10-24 12:02:07 51°9.13 2°35.769 63.1 2.8 56 15.6
2005-10-24 12:03:07 51°9.155 2°35.832 66.3 2.8 62 15.7
2005-10-24 12:04:07 51°9.178 2°35.894 66.2 2.7 60 15.7
2005-10-24 12:05:07 51°9.199 2°35.958 68.9 2.7 61 15.7
2005-10-24 12:06:07 51°9.22 2°36.023 68.9 2.8 65 15.6
2005-10-24 12:07:07 51°9.242 2°36.088 68.9 2.8 65 15.6
2005-10-24 12:08:07 51°9.263 2°36.153 68.4 2.8 61 15.7
2005-10-24 12:09:07 51°9.284 2°36.218 68.9 2.8 64 15.6
2005-10-24 12:10:07 51°9.305 2°36.284 68.5 2.8 59 15.7
2005-10-24 12:11:07 51°9.325 2°36.348 69.6 2.7 65 15.6
2005-10-24 12:12:07 51°9.346 2°36.413 69 2.8 58 15.7
2005-10-24 12:13:07 51°9.366 2°36.477 67.6 2.8 65 15.7
2005-10-24 12:14:07 51°9.387 2°36.541 68.3 2.8 66 15.7
2005-10-24 12:15:07 51°9.408 2°36.607 67.5 2.8 63 15.7
2005-10-24 12:16:07 51°9.428 2°36.673 67.2 2.8 60 15.6
2005-10-24 12:17:07 51°9.449 2°36.739 69.7 2.8 66 15.8
2005-10-24 12:18:07 51°9.471 2°36.805 68.2 2.8 64 15.9
2005-10-24 12:19:07 51°9.494 2°36.868 63.2 2.8 59 15.9
2005-10-24 12:20:07 51°9.519 2°36.929 57.5 2.8 56 15.9
2005-10-24 12:21:07 51°9.548 2°36.987 55.7 2.8 53 15.9
2005-10-24 12:22:07 51°9.578 2°37.047 55.5 2.8 51 15.9
2005-10-24 12:23:07 51°9.609 2°37.104 53.7 2.9 47 15.9
2005-10-24 12:24:07 51°9.639 2°37.162 54.9 2.8 50 16.1
2005-10-24 12:25:07 51°9.669 2°37.221 54.6 2.9 53 16.1
2005-10-24 12:26:07 51°9.695 2°37.283 66 2.7 64 16.2
2005-10-24 12:27:07 51°9.712 2°37.349 75.9 2.7 80 16.3
2005-10-24 12:28:07 51°9.722 2°37.416 82.7 2.6 76 16.3
2005-10-24 12:29:07 51°9.728 2°37.482 89.2 2.5 86 16.2
2005-10-24 12:30:07 51°9.729 2°37.549 95.7 2.3 93 16
2005-10-24 12:31:07 51°9.727 2°37.598 108.5 1.6 92 15.8
2005-10-24 12:32:07 51°9.722 2°37.635 118.2 1.3 100 15.7
2005-10-24 12:33:07 51°9.718 2°37.661 126.2 0.9 98 15.6
2005-10-24 12:34:07 51°9.699 2°37.715 129.8 4.3 125 15.2
2005-10-24 12:35:07 51°9.646 2°37.874 115.8 7.9 114 13.8
2005-10-24 12:36:07 51°9.611 2°38.058 100.3 6 98 12.5
2005-10-24 12:37:07 51°9.591 2°38.183 115.1 4.1 110 11.9
2005-10-24 12:38:07 51°9.573 2°38.276 111.5 3.5 106 11.4
2005-10-24 12:39:07 51°9.561 2°38.36 109.5 3.1 103 11.2
2005-10-24 12:40:07 51°9.548 2°38.436 112 2.8 106 11.2
2005-10-24 12:41:07 51°9.538 2°38.505 109.6 2.7 101 11.1
2005-10-24 12:42:07 51°9.533 2°38.572 104.6 2.5 95 11
2005-10-24 12:43:07 51°9.528 2°38.638 98.9 2.5 89 10.9
2005-10-24 12:44:07 51°9.53 2°38.703 91 2.5 80 10.8
2005-10-24 12:45:07 51°9.537 2°38.77 84.1 2.5 84 10.7
2005-10-24 12:46:07 51°9.55 2°38.837 75.8 2.8 72 10.7
2005-10-24 12:47:07 51°9.569 2°38.904 66 2.8 68 10.7
2005-10-24 12:48:07 51°9.592 2°38.97 64.3 3 58 10.7
2005-10-24 12:49:07 51°9.615 2°39.039 64.4 3 65 10.8
2005-10-24 12:50:07 51°9.638 2°39.109 67.1 2.9 62 10.7
2005-10-24 12:51:07 51°9.658 2°39.18 66.6 3 67 10.7
2005-10-24 12:52:07 51°9.68 2°39.248 65.3 2.9 58 10.8
2005-10-24 12:53:07 51°9.703 2°39.315 65.3 3 55 10.7
2005-10-24 12:54:07 51°9.724 2°39.384 67 2.9 63 10.8
2005-10-24 12:55:07 51°9.746 2°39.452 65.8 2.9 64 10.7
2005-10-24 12:56:07 51°9.768 2°39.522 66.2 2.9 61 10.7
2005-10-24 12:57:07 51°9.789 2°39.591 66.3 2.9 63 10.8
2005-10-24 12:58:07 51°9.812 2°39.66 65.2 2.9 63 10.8
2005-10-24 12:59:07 51°9.834 2°39.73 66.8 3 61 10.8
2005-10-24 13:00:07 51°9.858 2°39.798 62.4 3 60 10.9
2005-10-24 13:01:07 51°9.885 2°39.867 65.2 3.1 59 10.9
2005-10-24 13:02:07 51°9.91 2°39.938 66.9 3.1 64 11.1
2005-10-24 13:03:07 51°9.934 2°40.01 67.2 3.1 60 11
2005-10-24 13:04:07 51°9.959 2°40.081 67.6 3.1 62 11.1
2005-10-24 13:05:07 51°9.983 2°40.154 66.2 3.1 60 11.1
2005-10-24 13:06:07 51°10.008 2°40.226 66 3.1 57 11.1
2005-10-24 13:07:07 51°10.032 2°40.299 64.9 3.2 61 11.2
2005-10-24 13:08:07 51°10.057 2°40.372 66.6 3.1 57 11.2
2005-10-24 13:09:07 51°10.081 2°40.445 65.7 3.2 60 11.4
2005-10-24 13:10:07 51°10.106 2°40.519 67.5 3.1 64 11.4
2005-10-24 13:11:07 51°10.125 2°40.595 79.5 3 70 11.4
2005-10-24 13:12:07 51°10.136 2°40.671 88.5 2.9 76 11.3
2005-10-24 13:13:07 51°10.143 2°40.745 92.9 2.8 82 11.2
2005-10-24 13:14:07 51°10.148 2°40.819 99.9 2.8 93 11.2
2005-10-24 13:15:07 51°10.146 2°40.889 114.7 2.3 96 11.1
2005-10-24 13:16:07 51°10.141 2°40.941 124.7 1.8 99 10.9
2005-10-24 13:17:07 51°10.138 2°40.983 131.3 1.5 95 10.9
2005-10-24 13:18:07 51°10.137 2°41.018 134 1.3 91 10.9
2005-10-24 13:19:07 51°10.139 2°41.05 136.8 1.2 83 10.9
2005-10-24 13:20:07 51°10.141 2°41.08 139.4 1.1 81 10.8
2005-10-24 13:21:07 51°10.139 2°41.12 131.9 2.8 112 10.8
2005-10-24 13:22:07 51°10.166 2°41.232 39.8 5.5 35 10.6
2005-10-24 13:23:07 51°10.239 2°41.196 301.4 4.7 300 11.2
2005-10-24 13:24:07 51°10.201 2°41.02 246.1 10.4 244 11.2
2005-10-24 13:25:07 51°10.136 2°40.738 254.3 11.5 251 11.3
2005-10-24 13:26:07 51°10.073 2°40.446 254.1 11.6 251 11.2
2005-10-24 13:27:07 51°10.01 2°40.154 254 11.5 251 11.5
2005-10-24 13:28:07 51°9.97 2°39.991 244.1 3.7 242 11.8
2005-10-24 13:29:07 51°9.97 2°39.983 271 0.7 22 11.8
2005-10-24 13:30:07 51°9.982 2°39.995 304 0.9 41 11.8
2005-10-24 13:31:07 51°10.008 2°39.999 335.5 3.2 346 12
2005-10-24 13:32:07 51°10.102 2°40.087 45.8 10.8 47 12.3
2005-10-24 13:33:07 51°10.197 2°40.39 73.2 13.2 68 12.4
2005-10-24 13:34:07 51°10.288 2°40.717 68.3 13.6 63 12.3
2005-10-24 13:35:07 51°10.379 2°41.046 70.2 13.5 66 12.5
2005-10-24 13:36:07 51°10.47 2°41.374 69.7 13.6 63 12.4
2005-10-24 13:37:07 51°10.556 2°41.701 70.8 13.6 67 12.5
2005-10-24 13:38:07 51°10.645 2°42.028 71.4 13.3 67 12.6
2005-10-24 13:39:07 51°10.734 2°42.355 71.2 13.3 67 12.6
2005-10-24 13:40:07 51°10.825 2°42.681 71.4 13.7 63 12.7
2005-10-24 13:41:07 51°10.916 2°43.008 71.8 13.4 68 12.9
2005-10-24 13:42:07 51°11.002 2°43.343 73.9 13.5 68 13.1
2005-10-24 13:43:07 51°11.082 2°43.676 70.4 13.4 67 13.1
2005-10-24 13:44:07 51°11.159 2°44.009 75.3 13.7 69 13.1
2005-10-24 13:45:07 51°11.233 2°44.346 74.4 13.1 72 13.2
2005-10-24 13:46:07 51°11.31 2°44.681 73.6 13.6 68 13.2
2005-10-24 13:47:07 51°11.392 2°45.016 72.2 13.6 67 13.4
2005-10-24 13:48:07 51°11.47 2°45.35 75.1 13.3 73 13.2
2005-10-24 13:49:07 51°11.546 2°45.683 75.4 13.2 71 13.3
2005-10-24 13:50:07 51°11.639 2°46.008 68 13.4 64 13.4
2005-10-24 13:51:07 51°11.73 2°46.332 70.7 13.6 66 13.6
2005-10-24 13:52:07 51°11.824 2°46.657 70.1 13.9 64 13.4
2005-10-24 13:53:07 51°11.919 2°46.981 68.1 13.7 63 13.4
2005-10-24 13:54:07 51°12.02 2°47.303 68.2 13.9 62 13.4
2005-10-24 13:55:07 51°12.12 2°47.624 66.4 13.7 63 13.4
2005-10-24 13:56:07 51°12.222 2°47.946 67.6 13.5 67 13.3
2005-10-24 13:57:07 51°12.324 2°48.269 69 13.8 65 13.2
2005-10-24 13:58:07 51°12.426 2°48.591 68.7 13.7 64 13
2005-10-24 13:59:07 51°12.534 2°48.909 66 13.7 62 13
2005-10-24 14:00:07 51°12.645 2°49.225 63.8 13.5 58 12.9
2005-10-24 14:01:07 51°12.75 2°49.544 66.1 13.7 62 12.7
2005-10-24 14:02:07 51°12.859 2°49.86 64.2 13.4 61 12.7
2005-10-24 14:03:07 51°12.969 2°50.179 64.9 13.7 62 12.6
2005-10-24 14:04:07 51°13.076 2°50.498 65.4 13.4 62 12.5
2005-10-24 14:05:07 51°13.183 2°50.815 64.4 13.3 62 12.3
2005-10-24 14:06:07 51°13.299 2°51.129 63.6 13.9 59 12.1
2005-10-24 14:07:07 51°13.416 2°51.444 64.1 13.4 64 12.1
2005-10-24 14:08:07 51°13.531 2°51.757 65.1 13.7 60 11.8
2005-10-24 14:09:07 51°13.649 2°52.073 63.5 13.8 59 11.8
2005-10-24 14:10:07 51°13.766 2°52.39 64.2 14.1 57 11.8
2005-10-24 14:11:07 51°13.882 2°52.708 63.1 13.7 58 11.6
2005-10-24 14:12:07 51°13.993 2°53.03 66.7 13.8 64 11.4
2005-10-24 14:13:07 51°14.098 2°53.354 68.8 13.7 62 11.1
2005-10-24 14:14:07 51°14.192 2°53.661 67.6 12.5 60 10.8
2005-10-24 14:15:07 51°14.286 2°53.946 61.8 10.5 55 10.8
2005-10-24 14:16:07 51°14.373 2°54.077 37.5 5.5 43 11.1
2005-10-24 14:17:07 51°14.427 2°54.16 52.9 4.2 52 11.3
2005-10-24 14:18:07 51°14.453 2°54.248 88.2 3.2 79 11.3
2005-10-24 14:19:07 51°14.466 2°54.322 100.3 2.6 75 11.8
2005-10-24 14:20:07 51°14.476 2°54.386 107.1 2.5 75 11.8
2005-10-24 14:21:07 51°14.468 2°54.53 109.5 9.2 101 11.7
2005-10-24 14:22:07 51°14.436 2°54.84 106.8 12.6 102 11.7
2005-10-24 14:23:07 51°14.34 2°55.123 133.7 11.8 132 12
2005-10-24 14:24:08 51°14.214 2°55.338 141.4 9.7 140 -999
2005-10-24 14:25:08 51°14.089 2°55.45 158.5 7.9 154 -999
2005-10-24 14:26:07 51°13.978 2°55.531 158.6 7.3 154 11.3
2005-10-24 14:27:07 51°13.869 2°55.61 158.9 7.2 156 11.3
2005-10-24 14:28:07 51°13.765 2°55.699 148.3 6.6 143 10.7
2005-10-24 14:29:07 51°13.698 2°55.821 130.5 6 126 10.9
2005-10-24 14:30:07 51°13.649 2°55.939 126.1 5 122 10.5
2005-10-24 14:31:07 51°13.617 2°56.031 123.3 3.4 115 11.5
2005-10-24 14:32:07 51°13.605 2°56.092 115.7 1.5 106 7.9
2005-10-24 14:33:07 51°13.602 2°56.098 128.1 0.3 93 7.8